CheckWX is a tool to help pilots better visualize weather data.  It is not intended as a substitute for an official pre-flight weather briefing.

22:11:33 UTC

NSFA TAF
Faleolo International Airport
Apia, Samoa
TAF NSFA 201725Z 2018/2118 08006KT 9999 SCT020 PROB40 TEMPO 2018/2118 3000 TSRA BKN015 FEW018CB

Mar-20@
18:00 UTC

Mar-20 @ 18:00 UTC

Mar-21@
18:00 UTC

Mar-21 @ 18:00 UTC

TAF NSFA 201725Z 2018/2118 08006KT 9999 SCT020
Wind
  • 080° at 6 KTS
Cloud Levels
  • Scattered at 2,000' AGL

Mar-20@
18:00 UTC

Mar-20 @ 18:00 UTC

Mar-21@
18:00 UTC

Mar-21 @ 18:00 UTC

PROB40 TEMPO 2018/2118 3000 TSRA BKN015 FEW018CB

Temporary - 40% Likelihood

Temporary - 40% Likelihood during this time.

Conditions
Thunderstorm, Rain
Cloud Levels
  • Broken at 1,500' AGL
  • Few at 1,800' AGL